createdAt,value
2019-06-07T00:02:47.313Z,14.24
2019-06-07T00:07:54.192Z,14.24
2019-06-07T00:13:00.689Z,14.24
2019-06-07T00:18:11.173Z,14.29
2019-06-07T00:23:22.115Z,14.25
2019-06-07T00:28:24.090Z,14.14
2019-06-07T00:33:30.856Z,14.13
2019-06-07T00:38:37.516Z,13.86
2019-06-07T00:43:44.179Z,13.55
2019-06-07T00:48:50.753Z,13.67
2019-06-07T00:53:57.404Z,13.60
2019-06-07T00:59:11.348Z,13.47
2019-06-07T01:04:13.121Z,13.64
2019-06-07T01:09:23.959Z,13.64
2019-06-07T01:14:29.058Z,13.73
2019-06-07T01:19:35.731Z,13.67
2019-06-07T01:24:42.404Z,13.46
2019-06-07T01:29:49.064Z,13.15
2019-06-07T01:34:55.684Z,13.16
2019-06-07T01:40:02.260Z,13.14
2019-06-07T01:45:10.436Z,12.97
2019-06-07T01:50:22.596Z,12.78
2019-06-07T01:55:32.062Z,12.80
2019-06-07T02:00:36.272Z,12.54
2019-06-07T02:05:42.910Z,12.68
2019-06-07T02:10:49.511Z,12.74
2019-06-07T02:15:56.046Z,12.72
2019-06-07T02:21:02.647Z,12.63
2019-06-07T02:26:09.252Z,12.67
2019-06-07T02:31:15.789Z,12.72
2019-06-07T02:36:25.489Z,12.87
2019-06-07T02:41:38.679Z,12.93
2019-06-07T02:46:46.599Z,13.01
2019-06-07T02:51:47.358Z,13.01
2019-06-07T02:56:58.660Z,13.06
2019-06-07T03:02:02.575Z,13.02
2019-06-07T03:07:12.246Z,12.95
2019-06-07T03:12:22.407Z,12.99
2019-06-07T03:17:40.884Z,12.95
2019-06-07T03:22:49.145Z,12.93
2019-06-07T03:27:55.866Z,12.96
2019-06-07T03:33:02.380Z,13.00
2019-06-07T03:38:09.030Z,13.06
2019-06-07T03:43:15.593Z,13.12
2019-06-07T03:48:22.176Z,13.20
2019-06-07T03:53:30.802Z,13.23
2019-06-07T03:58:49.071Z,13.23
2019-06-07T04:03:51.883Z,13.29
2019-06-07T04:08:54.881Z,13.41
2019-06-07T04:14:02.514Z,13.52
2019-06-07T04:19:09.173Z,13.78
2019-06-07T04:24:16.635Z,14.38
2019-06-07T04:29:33.087Z,14.62
2019-06-07T04:34:37.513Z,15.06
2019-06-07T04:39:44.927Z,15.83
2019-06-07T04:44:53.676Z,17.23
2019-06-07T04:50:03.086Z,18.46
2019-06-07T04:55:09.913Z,19.49
2019-06-07T05:00:48.682Z,19.49
2019-06-07T05:05:29.338Z,17.70
2019-06-07T05:10:38.182Z,15.90
2019-06-07T05:15:44.315Z,15.34
2019-06-07T05:20:51.036Z,15.50
2019-06-07T05:25:57.851Z,15.99
2019-06-07T05:31:06.191Z,15.91
2019-06-07T05:36:12.859Z,16.37
2019-06-07T05:41:19.516Z,16.46
2019-06-07T05:46:26.100Z,16.64
2019-06-07T05:51:32.751Z,16.64
2019-06-07T05:56:40.735Z,16.41
2019-06-07T06:02:00.149Z,16.87
2019-06-07T06:06:56.964Z,16.99
2019-06-07T06:12:04.578Z,17.24
2019-06-07T06:17:11.165Z,17.22
2019-06-07T06:22:17.798Z,17.02
2019-06-07T06:28:02.814Z,17.06
2019-06-07T06:32:42.928Z,17.15
2019-06-07T06:37:42.682Z,17.38
2019-06-07T06:42:50.596Z,17.77
2019-06-07T06:47:57.329Z,17.60
2019-06-07T06:53:03.926Z,17.60
2019-06-07T06:58:10.578Z,17.94
2019-06-07T07:08:26.457Z,18.01
2019-06-07T07:13:33.091Z,17.62
2019-06-07T07:18:39.618Z,17.47
2019-06-07T07:24:08.222Z,17.94
2019-06-07T07:28:57.314Z,18.05
2019-06-07T07:39:11.165Z,17.81
2019-06-07T07:44:17.852Z,18.07
2019-06-07T07:49:24.525Z,18.28
2019-06-07T07:54:31.247Z,18.18
2019-06-07T07:59:44.062Z,18.20
2019-06-07T08:05:16.684Z,18.40
2019-06-07T08:09:59.585Z,18.56
2019-06-07T08:15:03.782Z,18.35
2019-06-07T08:20:12.412Z,18.58
2019-06-07T08:25:19.494Z,18.40
2019-06-07T08:30:49.861Z,18.80
2019-06-07T08:36:05.814Z,18.69
2019-06-07T08:40:44.965Z,18.92
2019-06-07T08:45:58.400Z,19.48
2019-06-07T08:51:06.617Z,19.49
2019-06-07T08:56:10.779Z,19.67
2019-06-07T09:01:16.606Z,19.83
2019-06-07T09:11:31.546Z,20.75
2019-06-07T09:16:38.215Z,21.28
2019-06-07T09:21:44.913Z,21.50
2019-06-07T09:26:51.575Z,21.81
2019-06-07T09:32:03.836Z,20.99
2019-06-07T09:37:54.455Z,22.23
2019-06-07T09:42:14.989Z,22.00
2019-06-07T09:47:31.886Z,21.73
2019-06-07T09:52:29.961Z,21.00
2019-06-07T09:57:36.627Z,21.19
2019-06-07T10:02:43.232Z,21.84
2019-06-07T10:08:02.461Z,22.45
2019-06-07T10:12:59.547Z,22.74
2019-06-07T10:18:07.083Z,23.20
2019-06-07T10:23:13.817Z,22.44
2019-06-07T10:28:20.622Z,23.43
2019-06-07T10:33:27.280Z,23.42
2019-06-07T10:38:33.823Z,23.35
2019-06-07T10:43:40.322Z,23.40
2019-06-07T10:48:46.890Z,23.71
2019-06-07T10:53:53.536Z,23.64
2019-06-07T10:59:00.092Z,24.31
2019-06-07T11:04:07.775Z,23.97
2019-06-07T11:09:14.584Z,24.67
2019-06-07T11:14:21.086Z,25.21
2019-06-07T11:19:27.674Z,24.65
2019-06-07T11:24:34.163Z,25.03
2019-06-07T11:29:41.684Z,24.89
2019-06-07T11:34:48.409Z,24.49
2019-06-07T11:39:55.180Z,24.20
2019-06-07T11:45:01.922Z,24.77
2019-06-07T11:50:31.978Z,24.97
2019-06-07T11:55:41.508Z,24.54
2019-06-07T12:00:48.184Z,25.45
2019-06-07T12:05:55.199Z,25.55
2019-06-07T12:11:02.004Z,25.53
2019-06-07T12:16:09.123Z,25.78
2019-06-07T12:21:15.941Z,25.92
2019-06-07T12:26:22.678Z,25.90
2019-06-07T12:31:29.362Z,25.67
2019-06-07T12:36:36.099Z,25.49
2019-06-07T12:41:42.746Z,25.76
2019-06-07T12:46:49.390Z,26.10
2019-06-07T12:51:56.127Z,26.31
2019-06-07T12:57:02.741Z,26.30
2019-06-07T13:02:09.437Z,26.17
2019-06-07T13:07:17.880Z,26.25
2019-06-07T13:12:24.862Z,26.47
2019-06-07T13:17:31.539Z,27.14
2019-06-07T13:22:38.367Z,27.65
2019-06-07T13:27:45.103Z,27.82
2019-06-07T13:32:51.697Z,28.09
2019-06-07T13:37:59.668Z,27.81
2019-06-07T13:43:07.712Z,27.92
2019-06-07T13:48:14.318Z,27.88
2019-06-07T13:53:22.725Z,26.97
2019-06-07T13:58:29.453Z,26.42
2019-06-07T14:03:36.080Z,26.90
2019-06-07T14:08:43.733Z,26.49
2019-06-07T14:13:50.425Z,27.64
2019-06-07T14:18:57.079Z,27.51
2019-06-07T14:24:03.743Z,28.38
2019-06-07T14:29:10.488Z,28.17
2019-06-07T14:34:17.104Z,28.32
2019-06-07T14:39:24.933Z,27.79
2019-06-07T14:44:31.766Z,28.20
2019-06-07T14:49:38.499Z,27.28
2019-06-07T14:54:45.114Z,27.58
2019-06-07T14:59:51.909Z,26.89
2019-06-07T15:04:59.037Z,26.72
2019-06-07T15:10:07.521Z,26.73
2019-06-07T15:15:14.465Z,27.01
2019-06-07T15:20:21.325Z,26.79
2019-06-07T15:25:29.164Z,26.82
2019-06-07T15:30:35.884Z,27.12
2019-06-07T15:35:42.428Z,26.94
2019-06-07T15:40:49.100Z,26.79
2019-06-07T15:45:55.597Z,26.82
2019-06-07T15:51:02.067Z,26.93
2019-06-07T15:56:09.002Z,26.79
2019-06-07T16:01:15.634Z,26.81
2019-06-07T16:06:22.281Z,26.48
2019-06-07T16:11:29.092Z,26.93
2019-06-07T16:16:37.039Z,27.00
2019-06-07T16:21:43.942Z,27.07
2019-06-07T16:26:50.583Z,27.30
2019-06-07T16:31:57.126Z,26.87
2019-06-07T16:37:03.682Z,27.07
2019-06-07T16:42:10.477Z,26.91
2019-06-07T16:47:17.176Z,27.11
2019-06-07T16:52:23.885Z,27.19
2019-06-07T16:57:30.495Z,27.48
2019-06-07T17:02:38.060Z,26.89
2019-06-07T17:07:46.730Z,27.47
2019-06-07T17:12:53.261Z,26.37
2019-06-07T17:17:59.963Z,25.86
2019-06-07T17:23:06.645Z,25.27
2019-06-07T17:28:13.358Z,25.28
2019-06-07T17:33:20.024Z,24.89
2019-06-07T17:38:26.775Z,24.82
2019-06-07T17:43:48.469Z,24.05
2019-06-07T17:48:41.988Z,23.94
2019-06-07T17:53:49.926Z,23.79
2019-06-07T17:58:56.768Z,23.67
2019-06-07T18:04:04.110Z,23.31
2019-06-07T18:09:14.070Z,23.14
2019-06-07T18:14:19.955Z,22.99
2019-06-07T18:19:26.676Z,22.69
2019-06-07T18:24:33.490Z,22.42
2019-06-07T18:29:40.124Z,22.27
2019-06-07T18:34:46.989Z,22.03
2019-06-07T18:39:55.216Z,21.95
2019-06-07T18:45:01.912Z,21.79
2019-06-07T18:50:09.946Z,21.74
2019-06-07T18:55:17.492Z,21.59
2019-06-07T19:00:25.282Z,21.44
2019-06-07T19:05:31.913Z,21.35
2019-06-07T19:10:38.664Z,21.25
2019-06-07T19:15:45.392Z,21.06
2019-06-07T19:20:52.498Z,20.93
2019-06-07T19:26:00.700Z,20.69
2019-06-07T19:31:07.395Z,20.48
2019-06-07T19:36:14.109Z,20.41
2019-06-07T19:41:20.846Z,20.23
2019-06-07T19:46:27.644Z,19.99
2019-06-07T19:51:36.084Z,19.71
2019-06-07T19:56:42.708Z,19.55
2019-06-07T20:01:49.776Z,19.30
2019-06-07T20:06:56.522Z,19.01
2019-06-07T20:12:03.234Z,18.77
2019-06-07T20:17:09.917Z,18.55
2019-06-07T20:22:16.454Z,18.22
2019-06-07T20:27:23.145Z,18.19
2019-06-07T20:32:29.720Z,18.02
2019-06-07T20:37:36.362Z,17.87
2019-06-07T20:42:43.013Z,17.77
2019-06-07T20:47:49.665Z,17.81
2019-06-07T20:52:56.255Z,17.68
2019-06-07T20:58:03.714Z,17.57
2019-06-07T21:03:11.194Z,17.58
2019-06-07T21:08:17.957Z,17.60
2019-06-07T21:13:24.543Z,17.64
2019-06-07T21:18:31.205Z,17.79
2019-06-07T21:23:37.830Z,17.71
2019-06-07T21:28:44.536Z,17.56
2019-06-07T21:33:51.167Z,17.63
2019-06-07T21:38:57.841Z,17.63
2019-06-07T21:44:06.113Z,17.55
2019-06-07T21:49:12.949Z,17.55
2019-06-07T21:54:19.621Z,17.43
2019-06-07T21:59:26.226Z,17.32
2019-06-07T22:04:32.830Z,17.06
2019-06-07T22:09:39.579Z,17.01
2019-06-07T22:14:46.062Z,17.12
2019-06-07T22:19:52.964Z,17.04
2019-06-07T22:24:59.532Z,16.92
2019-06-07T22:30:06.732Z,16.96
2019-06-07T22:35:13.567Z,16.95
2019-06-07T22:40:20.189Z,16.96
2019-06-07T22:45:26.845Z,17.10
2019-06-07T22:50:33.434Z,17.13
2019-06-07T22:55:40.004Z,17.31
2019-06-07T23:00:46.468Z,17.26
2019-06-07T23:05:53.115Z,17.36
2019-06-07T23:10:59.684Z,17.51
2019-06-07T23:16:06.602Z,17.41
2019-06-07T23:21:13.781Z,17.34
2019-06-07T23:26:20.702Z,17.25
2019-06-07T23:31:27.207Z,17.00
2019-06-07T23:36:33.687Z,16.75
2019-06-07T23:41:40.521Z,16.62
2019-06-07T23:46:47.151Z,16.57
2019-06-07T23:51:53.676Z,16.40
2019-06-07T23:57:00.148Z,16.25
